sensor_id;sensor_type;location;lat;lon;timestamp;pressure;altitude;pressure_sealevel;temperature;humidity
14089;BME280;7120;52.890;6.040;2023-05-25T00:01:02;102653.50;;;8.09;100.00
14089;BME280;7120;52.890;6.040;2023-05-25T00:03:28;102643.72;;;7.96;100.00
14089;BME280;7120;52.890;6.040;2023-05-25T00:05:55;102659.56;;;7.99;100.00
14089;BME280;7120;52.890;6.040;2023-05-25T00:08:22;102664.78;;;8.01;100.00
14089;BME280;7120;52.890;6.040;2023-05-25T00:10:47;102663.19;;;8.17;100.00
14089;BME280;7120;52.890;6.040;2023-05-25T00:13:12;102659.88;;;8.26;100.00
14089;BME280;7120;52.890;6.040;2023-05-25T00:15:38;102653.19;;;8.34;100.00
14089;BME280;7120;52.890;6.040;2023-05-25T00:18:03;102663.28;;;8.34;100.00
14089;BME280;7120;52.890;6.040;2023-05-25T00:20:28;102662.38;;;8.16;100.00
14089;BME280;7120;52.890;6.040;2023-05-25T00:22:54;102660.59;;;8.10;100.00
14089;BME280;7120;52.890;6.040;2023-05-25T00:25:20;102663.09;;;8.12;100.00
14089;BME280;7120;52.890;6.040;2023-05-25T00:27:45;102656.69;;;8.18;100.00
14089;BME280;7120;52.890;6.040;2023-05-25T00:30:11;102653.63;;;8.14;100.00
14089;BME280;7120;52.890;6.040;2023-05-25T00:32:36;102654.44;;;8.15;100.00
14089;BME280;7120;52.890;6.040;2023-05-25T00:35:02;102656.91;;;8.28;100.00
14089;BME280;7120;52.890;6.040;2023-05-25T00:37:27;102652.53;;;8.39;100.00
14089;BME280;7120;52.890;6.040;2023-05-25T00:39:53;102643.78;;;8.13;100.00
14089;BME280;7120;52.890;6.040;2023-05-25T00:42:19;102647.53;;;8.24;100.00
14089;BME280;7120;52.890;6.040;2023-05-25T00:44:44;102644.81;;;8.24;100.00
14089;BME280;7120;52.890;6.040;2023-05-25T00:47:10;102653.19;;;8.34;100.00
14089;BME280;7120;52.890;6.040;2023-05-25T00:49:36;102653.91;;;8.41;100.00
14089;BME280;7120;52.890;6.040;2023-05-25T00:52:02;102654.63;;;8.37;100.00
14089;BME280;7120;52.890;6.040;2023-05-25T00:54:27;102663.75;;;8.42;100.00
14089;BME280;7120;52.890;6.040;2023-05-25T00:57:00;102667.31;;;8.31;100.00
14089;BME280;7120;52.890;6.040;2023-05-25T00:59:36;102668.94;;;8.44;100.00
14089;BME280;7120;52.890;6.040;2023-05-25T01:02:09;102671.69;;;8.44;100.00
14089;BME280;7120;52.890;6.040;2023-05-25T01:04:39;102670.84;;;8.43;100.00
14089;BME280;7120;52.890;6.040;2023-05-25T01:07:07;102680.97;;;8.60;100.00
14089;BME280;7120;52.890;6.040;2023-05-25T01:09:37;102683.47;;;8.61;100.00
14089;BME280;7120;52.890;6.040;2023-05-25T01:12:04;102679.69;;;8.62;100.00
14089;BME280;7120;52.890;6.040;2023-05-25T01:14:30;102680.66;;;8.56;100.00
14089;BME280;7120;52.890;6.040;2023-05-25T01:16:56;102682.97;;;8.64;100.00
14089;BME280;7120;52.890;6.040;2023-05-25T01:19:23;102675.09;;;8.51;100.00
14089;BME280;7120;52.890;6.040;2023-05-25T01:22:06;102672.19;;;8.69;100.00
14089;BME280;7120;52.890;6.040;2023-05-25T01:25:50;102668.38;;;8.42;100.00
14089;BME280;7120;52.890;6.040;2023-05-25T01:28:01;102673.00;;;8.41;100.00
14089;BME280;7120;52.890;6.040;2023-05-25T01:30:29;102673.88;;;8.59;100.00
14089;BME280;7120;52.890;6.040;2023-05-25T01:32:57;102678.31;;;8.48;100.00
14089;BME280;7120;52.890;6.040;2023-05-25T01:35:24;102683.31;;;8.27;100.00
14089;BME280;7120;52.890;6.040;2023-05-25T01:37:50;102690.09;;;8.25;100.00
14089;BME280;7120;52.890;6.040;2023-05-25T01:40:16;102684.41;;;8.26;100.00
14089;BME280;7120;52.890;6.040;2023-05-25T01:42:41;102681.31;;;8.23;100.00
14089;BME280;7120;52.890;6.040;2023-05-25T01:45:08;102679.66;;;8.22;100.00
14089;BME280;7120;52.890;6.040;2023-05-25T01:48:09;102688.78;;;8.27;100.00
14089;BME280;7120;52.890;6.040;2023-05-25T01:50:44;102689.94;;;8.43;100.00
14089;BME280;7120;52.890;6.040;2023-05-25T01:53:18;102685.69;;;8.36;100.00
14089;BME280;7120;52.890;6.040;2023-05-25T01:56:05;102696.38;;;8.25;100.00
14089;BME280;7120;52.890;6.040;2023-05-25T01:58:41;102697.66;;;8.35;100.00
14089;BME280;7120;52.890;6.040;2023-05-25T02:01:13;102685.81;;;8.41;100.00
14089;BME280;7120;52.890;6.040;2023-05-25T02:03:40;102701.91;;;8.42;100.00
14089;BME280;7120;52.890;6.040;2023-05-25T02:06:06;102690.28;;;8.47;100.00
14089;BME280;7120;52.890;6.040;2023-05-25T02:08:32;102700.00;;;8.55;100.00
14089;BME280;7120;52.890;6.040;2023-05-25T02:10:58;102699.63;;;8.51;100.00
14089;BME280;7120;52.890;6.040;2023-05-25T02:13:23;102702.50;;;8.44;100.00
14089;BME280;7120;52.890;6.040;2023-05-25T02:15:48;102697.53;;;8.30;100.00
14089;BME280;7120;52.890;6.040;2023-05-25T02:18:14;102700.16;;;8.24;100.00
14089;BME280;7120;52.890;6.040;2023-05-25T02:20:42;102705.81;;;8.35;100.00
14089;BME280;7120;52.890;6.040;2023-05-25T02:23:08;102708.09;;;8.38;100.00
14089;BME280;7120;52.890;6.040;2023-05-25T02:25:33;102706.53;;;8.42;100.00
14089;BME280;7120;52.890;6.040;2023-05-25T02:27:58;102709.78;;;8.39;100.00
14089;BME280;7120;52.890;6.040;2023-05-25T02:30:24;102712.56;;;8.44;100.00
14089;BME280;7120;52.890;6.040;2023-05-25T02:32:49;102709.13;;;8.48;100.00
14089;BME280;7120;52.890;6.040;2023-05-25T02:35:15;102700.13;;;8.48;100.00
14089;BME280;7120;52.890;6.040;2023-05-25T02:37:40;102707.00;;;8.50;100.00
14089;BME280;7120;52.890;6.040;2023-05-25T02:40:06;102713.25;;;8.63;100.00
14089;BME280;7120;52.890;6.040;2023-05-25T02:42:32;102707.94;;;8.56;100.00
14089;BME280;7120;52.890;6.040;2023-05-25T02:44:57;102699.56;;;8.46;100.00
14089;BME280;7120;52.890;6.040;2023-05-25T02:47:22;102698.94;;;8.44;100.00
14089;BME280;7120;52.890;6.040;2023-05-25T02:49:48;102694.84;;;8.18;100.00
14089;BME280;7120;52.890;6.040;2023-05-25T02:52:13;102695.78;;;8.35;100.00
14089;BME280;7120;52.890;6.040;2023-05-25T02:54:38;102691.97;;;8.36;100.00
14089;BME280;7120;52.890;6.040;2023-05-25T02:57:04;102703.00;;;8.41;100.00
14089;BME280;7120;52.890;6.040;2023-05-25T02:59:30;102707.63;;;8.17;100.00
14089;BME280;7120;52.890;6.040;2023-05-25T03:01:55;102707.41;;;8.07;100.00
14089;BME280;7120;52.890;6.040;2023-05-25T03:04:21;102711.66;;;8.15;100.00
14089;BME280;7120;52.890;6.040;2023-05-25T03:06:46;102695.81;;;8.12;100.00
14089;BME280;7120;52.890;6.040;2023-05-25T03:09:12;102709.66;;;8.10;100.00
14089;BME280;7120;52.890;6.040;2023-05-25T03:11:38;102705.88;;;8.11;100.00
14089;BME280;7120;52.890;6.040;2023-05-25T03:14:03;102703.38;;;8.10;100.00
14089;BME280;7120;52.890;6.040;2023-05-25T03:16:28;102714.88;;;7.88;100.00
14089;BME280;7120;52.890;6.040;2023-05-25T03:18:54;102710.88;;;7.91;100.00
14089;BME280;7120;52.890;6.040;2023-05-25T03:21:19;102721.16;;;8.01;100.00
14089;BME280;7120;52.890;6.040;2023-05-25T03:23:47;102737.50;;;7.89;100.00
14089;BME280;7120;52.890;6.040;2023-05-25T03:26:12;102730.03;;;7.96;100.00
14089;BME280;7120;52.890;6.040;2023-05-25T03:28:37;102734.91;;;8.06;100.00
14089;BME280;7120;52.890;6.040;2023-05-25T03:31:03;102735.75;;;8.06;100.00
14089;BME280;7120;52.890;6.040;2023-05-25T03:33:28;102743.31;;;8.16;100.00
14089;BME280;7120;52.890;6.040;2023-05-25T03:35:54;102742.22;;;8.17;100.00
14089;BME280;7120;52.890;6.040;2023-05-25T03:38:21;102751.84;;;8.19;100.00
14089;BME280;7120;52.890;6.040;2023-05-25T03:40:46;102741.41;;;8.16;100.00
14089;BME280;7120;52.890;6.040;2023-05-25T03:43:12;102753.38;;;8.27;100.00
14089;BME280;7120;52.890;6.040;2023-05-25T03:45:37;102742.94;;;8.36;100.00
14089;BME280;7120;52.890;6.040;2023-05-25T03:48:02;102738.19;;;8.43;100.00
14089;BME280;7120;52.890;6.040;2023-05-25T03:50:28;102744.47;;;8.43;100.00
14089;BME280;7120;52.890;6.040;2023-05-25T03:52:53;102739.59;;;8.45;100.00
14089;BME280;7120;52.890;6.040;2023-05-25T03:55:18;102744.22;;;8.45;100.00
14089;BME280;7120;52.890;6.040;2023-05-25T03:57:44;102735.59;;;8.36;100.00
14089;BME280;7120;52.890;6.040;2023-05-25T04:00:10;102752.00;;;8.65;100.00
14089;BME280;7120;52.890;6.040;2023-05-25T04:02:35;102753.19;;;8.69;100.00
14089;BME280;7120;52.890;6.040;2023-05-25T04:05:02;102752.41;;;8.85;100.00
14089;BME280;7120;52.890;6.040;2023-05-25T04:07:27;102756.72;;;8.81;100.00
14089;BME280;7120;52.890;6.040;2023-05-25T04:09:55;102762.34;;;8.91;100.00
14089;BME280;7120;52.890;6.040;2023-05-25T04:12:23;102757.44;;;9.05;100.00
14089;BME280;7120;52.890;6.040;2023-05-25T04:14:49;102760.25;;;9.10;100.00
14089;BME280;7120;52.890;6.040;2023-05-25T04:17:15;102756.88;;;9.20;100.00
14089;BME280;7120;52.890;6.040;2023-05-25T04:19:41;102754.78;;;9.10;100.00
14089;BME280;7120;52.890;6.040;2023-05-25T04:22:07;102757.75;;;9.08;100.00
14089;BME280;7120;52.890;6.040;2023-05-25T04:24:32;102755.38;;;9.12;100.00
14089;BME280;7120;52.890;6.040;2023-05-25T04:26:58;102750.88;;;9.06;100.00
14089;BME280;7120;52.890;6.040;2023-05-25T04:29:26;102760.00;;;9.12;100.00
14089;BME280;7120;52.890;6.040;2023-05-25T04:31:52;102754.66;;;9.17;100.00
14089;BME280;7120;52.890;6.040;2023-05-25T04:34:19;102756.97;;;9.25;100.00
14089;BME280;7120;52.890;6.040;2023-05-25T04:36:45;102760.06;;;9.45;100.00
14089;BME280;7120;52.890;6.040;2023-05-25T04:39:11;102755.25;;;9.52;100.00
14089;BME280;7120;52.890;6.040;2023-05-25T04:41:37;102758.31;;;9.56;100.00
14089;BME280;7120;52.890;6.040;2023-05-25T04:44:03;102753.09;;;9.54;100.00
14089;BME280;7120;52.890;6.040;2023-05-25T04:46:28;102757.00;;;9.58;100.00
14089;BME280;7120;52.890;6.040;2023-05-25T04:48:56;102755.34;;;9.74;100.00
14089;BME280;7120;52.890;6.040;2023-05-25T04:51:21;102751.66;;;9.85;100.00
14089;BME280;7120;52.890;6.040;2023-05-25T04:53:47;102752.63;;;10.13;100.00
14089;BME280;7120;52.890;6.040;2023-05-25T04:56:13;102759.75;;;10.31;100.00
14089;BME280;7120;52.890;6.040;2023-05-25T04:58:38;102761.84;;;10.24;100.00
14089;BME280;7120;52.890;6.040;2023-05-25T05:01:03;102761.75;;;10.57;100.00
14089;BME280;7120;52.890;6.040;2023-05-25T05:03:29;102765.72;;;10.93;100.00
14089;BME280;7120;52.890;6.040;2023-05-25T05:05:54;102761.94;;;11.26;100.00
14089;BME280;7120;52.890;6.040;2023-05-25T05:08:21;102771.66;;;11.71;100.00
14089;BME280;7120;52.890;6.040;2023-05-25T05:10:46;102758.72;;;12.04;100.00
14089;BME280;7120;52.890;6.040;2023-05-25T05:13:12;102761.91;;;12.28;100.00
14089;BME280;7120;52.890;6.040;2023-05-25T05:15:38;102773.69;;;12.28;100.00
14089;BME280;7120;52.890;6.040;2023-05-25T05:18:03;102773.25;;;12.04;100.00
14089;BME280;7120;52.890;6.040;2023-05-25T05:20:30;102770.88;;;12.18;100.00
14089;BME280;7120;52.890;6.040;2023-05-25T05:22:55;102775.03;;;12.21;100.00
14089;BME280;7120;52.890;6.040;2023-05-25T05:25:20;102780.72;;;12.09;100.00
14089;BME280;7120;52.890;6.040;2023-05-25T05:27:46;102782.44;;;12.25;100.00
14089;BME280;7120;52.890;6.040;2023-05-25T05:30:11;102789.38;;;12.38;100.00
14089;BME280;7120;52.890;6.040;2023-05-25T05:32:37;102790.78;;;12.46;100.00
14089;BME280;7120;52.890;6.040;2023-05-25T05:35:02;102788.13;;;12.56;100.00
14089;BME280;7120;52.890;6.040;2023-05-25T05:37:27;102781.38;;;12.26;100.00
14089;BME280;7120;52.890;6.040;2023-05-25T05:39:53;102781.78;;;12.50;100.00
14089;BME280;7120;52.890;6.040;2023-05-25T05:42:18;102787.41;;;12.28;100.00
14089;BME280;7120;52.890;6.040;2023-05-25T05:44:43;102798.53;;;12.06;100.00
14089;BME280;7120;52.890;6.040;2023-05-25T05:47:09;102799.81;;;11.94;100.00
14089;BME280;7120;52.890;6.040;2023-05-25T05:49:34;102807.94;;;12.21;100.00
14089;BME280;7120;52.890;6.040;2023-05-25T05:52:02;102807.94;;;12.21;100.00
14089;BME280;7120;52.890;6.040;2023-05-25T05:54:27;102810.59;;;12.53;100.00
14089;BME280;7120;52.890;6.040;2023-05-25T05:56:53;102813.28;;;12.43;100.00
14089;BME280;7120;52.890;6.040;2023-05-25T05:59:20;102814.81;;;12.23;100.00
14089;BME280;7120;52.890;6.040;2023-05-25T06:01:45;102814.31;;;12.26;100.00
14089;BME280;7120;52.890;6.040;2023-05-25T06:04:10;102805.88;;;12.43;100.00
14089;BME280;7120;52.890;6.040;2023-05-25T06:06:36;102806.94;;;12.37;100.00
14089;BME280;7120;52.890;6.040;2023-05-25T06:09:03;102812.50;;;12.52;100.00
14089;BME280;7120;52.890;6.040;2023-05-25T06:11:31;102816.19;;;12.73;100.00
14089;BME280;7120;52.890;6.040;2023-05-25T06:13:57;102811.75;;;12.62;100.00
14089;BME280;7120;52.890;6.040;2023-05-25T06:16:22;102811.47;;;12.63;100.00
14089;BME280;7120;52.890;6.040;2023-05-25T06:18:48;102815.47;;;12.98;100.00
14089;BME280;7120;52.890;6.040;2023-05-25T06:21:13;102816.31;;;13.04;100.00
14089;BME280;7120;52.890;6.040;2023-05-25T06:23:38;102807.78;;;13.10;100.00
14089;BME280;7120;52.890;6.040;2023-05-25T06:26:04;102820.25;;;13.43;100.00
14089;BME280;7120;52.890;6.040;2023-05-25T06:28:30;102817.28;;;13.60;100.00
14089;BME280;7120;52.890;6.040;2023-05-25T06:30:56;102821.34;;;13.53;100.00
14089;BME280;7120;52.890;6.040;2023-05-25T06:33:22;102820.81;;;13.56;100.00
14089;BME280;7120;52.890;6.040;2023-05-25T06:35:47;102827.69;;;13.58;100.00
14089;BME280;7120;52.890;6.040;2023-05-25T06:38:13;102822.50;;;13.82;100.00
14089;BME280;7120;52.890;6.040;2023-05-25T06:40:38;102830.75;;;14.02;100.00
14089;BME280;7120;52.890;6.040;2023-05-25T06:43:04;102833.75;;;14.01;100.00
14089;BME280;7120;52.890;6.040;2023-05-25T06:45:29;102836.75;;;14.25;100.00
14089;BME280;7120;52.890;6.040;2023-05-25T06:47:54;102832.88;;;14.36;100.00
14089;BME280;7120;52.890;6.040;2023-05-25T06:50:20;102841.75;;;13.97;100.00
14089;BME280;7120;52.890;6.040;2023-05-25T06:52:45;102845.25;;;14.59;100.00
14089;BME280;7120;52.890;6.040;2023-05-25T06:55:11;102854.34;;;14.60;100.00
14089;BME280;7120;52.890;6.040;2023-05-25T06:57:36;102851.03;;;14.37;100.00
14089;BME280;7120;52.890;6.040;2023-05-25T07:00:03;102850.81;;;14.13;100.00
14089;BME280;7120;52.890;6.040;2023-05-25T07:02:33;102845.00;;;14.15;100.00
14089;BME280;7120;52.890;6.040;2023-05-25T07:04:59;102851.59;;;14.39;100.00
14089;BME280;7120;52.890;6.040;2023-05-25T07:07:25;102857.88;;;14.70;100.00
14089;BME280;7120;52.890;6.040;2023-05-25T07:09:50;102859.28;;;14.57;100.00
14089;BME280;7120;52.890;6.040;2023-05-25T07:12:15;102861.25;;;14.21;100.00
14089;BME280;7120;52.890;6.040;2023-05-25T07:14:41;102861.81;;;14.18;100.00
14089;BME280;7120;52.890;6.040;2023-05-25T07:17:06;102867.81;;;14.36;100.00
14089;BME280;7120;52.890;6.040;2023-05-25T07:19:31;102869.41;;;14.72;100.00
14089;BME280;7120;52.890;6.040;2023-05-25T07:21:57;102867.75;;;14.76;100.00
14089;BME280;7120;52.890;6.040;2023-05-25T07:24:22;102877.44;;;14.43;100.00
14089;BME280;7120;52.890;6.040;2023-05-25T07:26:48;102880.47;;;14.57;100.00
14089;BME280;7120;52.890;6.040;2023-05-25T07:29:13;102878.00;;;14.50;100.00
14089;BME280;7120;52.890;6.040;2023-05-25T07:31:39;102872.16;;;14.82;100.00
14089;BME280;7120;52.890;6.040;2023-05-25T07:34:04;102873.59;;;14.60;100.00
14089;BME280;7120;52.890;6.040;2023-05-25T07:36:29;102891.16;;;14.79;100.00
14089;BME280;7120;52.890;6.040;2023-05-25T07:38:56;102893.72;;;14.50;100.00
14089;BME280;7120;52.890;6.040;2023-05-25T07:41:21;102886.22;;;14.66;97.34
14089;BME280;7120;52.890;6.040;2023-05-25T07:43:47;102884.28;;;14.71;95.28
14089;BME280;7120;52.890;6.040;2023-05-25T07:46:12;102883.63;;;15.05;91.07
14089;BME280;7120;52.890;6.040;2023-05-25T07:48:38;102878.44;;;15.48;88.64
14089;BME280;7120;52.890;6.040;2023-05-25T07:51:03;102885.25;;;15.60;82.19
14089;BME280;7120;52.890;6.040;2023-05-25T07:53:29;102886.16;;;15.51;82.69
14089;BME280;7120;52.890;6.040;2023-05-25T07:55:54;102887.91;;;15.81;81.02
14089;BME280;7120;52.890;6.040;2023-05-25T07:58:19;102890.00;;;16.28;79.84
14089;BME280;7120;52.890;6.040;2023-05-25T08:00:45;102879.16;;;16.61;78.50
14089;BME280;7120;52.890;6.040;2023-05-25T08:03:10;102885.16;;;16.68;78.26
14089;BME280;7120;52.890;6.040;2023-05-25T08:05:36;102887.44;;;16.61;81.17
14089;BME280;7120;52.890;6.040;2023-05-25T08:08:01;102905.19;;;15.52;92.37
14089;BME280;7120;52.890;6.040;2023-05-25T08:10:27;102910.53;;;15.28;90.68
14089;BME280;7120;52.890;6.040;2023-05-25T08:12:56;102904.16;;;15.38;88.53
14089;BME280;7120;52.890;6.040;2023-05-25T08:15:22;102911.00;;;15.46;89.28
14089;BME280;7120;52.890;6.040;2023-05-25T08:17:48;102908.88;;;15.32;91.30
14089;BME280;7120;52.890;6.040;2023-05-25T08:20:15;102917.81;;;15.63;88.62
14089;BME280;7120;52.890;6.040;2023-05-25T08:22:41;102908.41;;;15.70;87.41
14089;BME280;7120;52.890;6.040;2023-05-25T08:25:07;102912.97;;;16.24;85.43
14089;BME280;7120;52.890;6.040;2023-05-25T08:27:33;102928.78;;;15.79;81.41
14089;BME280;7120;52.890;6.040;2023-05-25T08:29:58;102918.97;;;15.97;88.77
14089;BME280;7120;52.890;6.040;2023-05-25T08:32:23;102921.31;;;16.13;80.87
14089;BME280;7120;52.890;6.040;2023-05-25T08:34:49;102923.06;;;16.62;78.69
14089;BME280;7120;52.890;6.040;2023-05-25T08:37:14;102928.78;;;16.42;80.15
14089;BME280;7120;52.890;6.040;2023-05-25T08:39:40;102919.34;;;16.19;79.33
14089;BME280;7120;52.890;6.040;2023-05-25T08:42:06;102929.03;;;16.16;79.77
14089;BME280;7120;52.890;6.040;2023-05-25T08:44:32;102938.63;;;15.85;82.70
14089;BME280;7120;52.890;6.040;2023-05-25T08:47:02;102934.50;;;15.87;77.19
14089;BME280;7120;52.890;6.040;2023-05-25T08:49:30;102928.38;;;15.96;78.79
14089;BME280;7120;52.890;6.040;2023-05-25T08:51:58;102920.56;;;16.08;77.02
14089;BME280;7120;52.890;6.040;2023-05-25T08:54:29;102928.00;;;16.07;80.43
14089;BME280;7120;52.890;6.040;2023-05-25T08:57:00;102928.22;;;16.45;81.23
14089;BME280;7120;52.890;6.040;2023-05-25T08:59:49;102922.97;;;16.78;76.07
14089;BME280;7120;52.890;6.040;2023-05-25T09:02:28;102928.00;;;16.07;80.25
14089;BME280;7120;52.890;6.040;2023-05-25T09:04:57;102931.56;;;15.69;81.80
14089;BME280;7120;52.890;6.040;2023-05-25T09:07:24;102933.25;;;15.00;82.57
14089;BME280;7120;52.890;6.040;2023-05-25T09:09:50;102933.88;;;14.71;89.35
14089;BME280;7120;52.890;6.040;2023-05-25T09:12:17;102941.06;;;14.62;93.43
14089;BME280;7120;52.890;6.040;2023-05-25T09:14:43;102940.78;;;14.74;93.08
14089;BME280;7120;52.890;6.040;2023-05-25T09:17:15;102956.44;;;14.78;91.50
14089;BME280;7120;52.890;6.040;2023-05-25T09:19:42;102948.75;;;14.65;90.56
14089;BME280;7120;52.890;6.040;2023-05-25T09:22:08;102947.53;;;15.17;90.75
14089;BME280;7120;52.890;6.040;2023-05-25T09:24:37;102940.06;;;16.16;84.22
14089;BME280;7120;52.890;6.040;2023-05-25T09:27:05;102938.84;;;17.34;75.90
14089;BME280;7120;52.890;6.040;2023-05-25T09:29:31;102950.09;;;17.18;70.08
14089;BME280;7120;52.890;6.040;2023-05-25T09:31:57;102941.16;;;17.69;75.02
14089;BME280;7120;52.890;6.040;2023-05-25T09:34:22;102938.66;;;17.49;67.80
14089;BME280;7120;52.890;6.040;2023-05-25T09:36:48;102940.41;;;18.34;63.45
14089;BME280;7120;52.890;6.040;2023-05-25T09:39:13;102945.88;;;18.53;60.77
14089;BME280;7120;52.890;6.040;2023-05-25T09:41:41;102938.22;;;17.42;63.53
14089;BME280;7120;52.890;6.040;2023-05-25T09:44:07;102944.16;;;17.30;67.38
14089;BME280;7120;52.890;6.040;2023-05-25T09:46:33;102944.34;;;16.62;68.22
14089;BME280;7120;52.890;6.040;2023-05-25T09:49:06;102945.72;;;16.35;69.40
14089;BME280;7120;52.890;6.040;2023-05-25T09:51:32;102960.94;;;16.28;74.93
14089;BME280;7120;52.890;6.040;2023-05-25T09:54:02;102956.19;;;15.50;71.92
14089;BME280;7120;52.890;6.040;2023-05-25T09:56:30;102953.22;;;15.41;74.22
14089;BME280;7120;52.890;6.040;2023-05-25T09:58:56;102962.13;;;15.23;74.76
14089;BME280;7120;52.890;6.040;2023-05-25T10:01:22;102949.50;;;16.44;68.13
14089;BME280;7120;52.890;6.040;2023-05-25T10:03:47;102945.41;;;17.99;64.79
14089;BME280;7120;52.890;6.040;2023-05-25T10:06:13;102946.91;;;19.17;58.96
14089;BME280;7120;52.890;6.040;2023-05-25T10:08:42;102952.47;;;18.57;56.62
14089;BME280;7120;52.890;6.040;2023-05-25T10:11:09;102956.03;;;16.83;60.73
14089;BME280;7120;52.890;6.040;2023-05-25T10:13:35;102955.22;;;16.53;62.65
14089;BME280;7120;52.890;6.040;2023-05-25T10:16:02;102958.00;;;17.73;59.05
14089;BME280;7120;52.890;6.040;2023-05-25T10:18:31;102962.25;;;18.03;61.09
14089;BME280;7120;52.890;6.040;2023-05-25T10:21:00;102961.88;;;18.09;57.17
14089;BME280;7120;52.890;6.040;2023-05-25T10:23:34;102960.53;;;17.88;57.65
14089;BME280;7120;52.890;6.040;2023-05-25T10:26:02;102961.47;;;16.93;58.12
14089;BME280;7120;52.890;6.040;2023-05-25T10:28:30;102962.16;;;17.03;59.49
14089;BME280;7120;52.890;6.040;2023-05-25T10:30:58;102961.28;;;16.84;61.17
14089;BME280;7120;52.890;6.040;2023-05-25T10:33:24;102965.84;;;16.70;61.59
14089;BME280;7120;52.890;6.040;2023-05-25T10:35:52;102962.25;;;16.98;62.51
14089;BME280;7120;52.890;6.040;2023-05-25T10:38:18;102962.47;;;18.39;59.28
14089;BME280;7120;52.890;6.040;2023-05-25T10:40:45;102955.56;;;18.04;55.05
14089;BME280;7120;52.890;6.040;2023-05-25T10:43:18;102968.88;;;17.64;57.81
14089;BME280;7120;52.890;6.040;2023-05-25T10:45:43;102971.41;;;16.94;59.27
14089;BME280;7120;52.890;6.040;2023-05-25T10:48:09;102972.25;;;18.18;58.41
14089;BME280;7120;52.890;6.040;2023-05-25T10:50:35;102958.19;;;18.93;53.69
14089;BME280;7120;52.890;6.040;2023-05-25T10:53:04;102977.00;;;17.37;56.41
14089;BME280;7120;52.890;6.040;2023-05-25T10:58:15;102965.38;;;18.80;55.82
14089;BME280;7120;52.890;6.040;2023-05-25T11:00:41;102961.47;;;19.64;50.93
14089;BME280;7120;52.890;6.040;2023-05-25T11:03:08;102961.06;;;19.02;48.10
14089;BME280;7120;52.890;6.040;2023-05-25T11:05:35;102960.94;;;18.33;52.23
14089;BME280;7120;52.890;6.040;2023-05-25T11:08:07;102969.53;;;17.37;55.14
14089;BME280;7120;52.890;6.040;2023-05-25T11:16:20;102969.44;;;20.38;50.93
14089;BME280;7120;52.890;6.040;2023-05-25T11:18:53;102967.13;;;17.92;52.53
14089;BME280;7120;52.890;6.040;2023-05-25T11:26:22;102969.78;;;19.50;46.74
14089;BME280;7120;52.890;6.040;2023-05-25T11:28:49;102964.47;;;19.40;48.35
14089;BME280;7120;52.890;6.040;2023-05-25T11:31:15;102961.06;;;19.93;48.89
14089;BME280;7120;52.890;6.040;2023-05-25T11:33:43;102946.69;;;19.91;44.24
14089;BME280;7120;52.890;6.040;2023-05-25T11:36:09;102955.41;;;19.62;47.80
14089;BME280;7120;52.890;6.040;2023-05-25T11:38:40;102961.97;;;19.52;48.97
14089;BME280;7120;52.890;6.040;2023-05-25T11:41:14;102956.66;;;19.28;48.39
14089;BME280;7120;52.890;6.040;2023-05-25T11:43:40;102968.16;;;19.21;47.67
14089;BME280;7120;52.890;6.040;2023-05-25T11:46:10;102960.88;;;19.12;46.85
14089;BME280;7120;52.890;6.040;2023-05-25T11:48:41;102951.59;;;19.44;46.55
14089;BME280;7120;52.890;6.040;2023-05-25T11:51:07;102953.97;;;19.87;51.32
14089;BME280;7120;52.890;6.040;2023-05-25T11:53:32;102952.94;;;19.46;48.29
14089;BME280;7120;52.890;6.040;2023-05-25T11:55:57;102953.56;;;19.30;47.20
14089;BME280;7120;52.890;6.040;2023-05-25T11:58:23;102953.88;;;19.28;49.00
14089;BME280;7120;52.890;6.040;2023-05-25T12:00:48;102950.09;;;19.10;50.23
14089;BME280;7120;52.890;6.040;2023-05-25T12:03:30;102953.88;;;18.87;49.48
14089;BME280;7120;52.890;6.040;2023-05-25T12:05:58;102943.94;;;18.53;49.14
14089;BME280;7120;52.890;6.040;2023-05-25T12:08:33;102943.53;;;19.06;47.63
14089;BME280;7120;52.890;6.040;2023-05-25T12:10:59;102942.59;;;18.83;50.62
14089;BME280;7120;52.890;6.040;2023-05-25T12:13:24;102942.66;;;18.32;48.73
14089;BME280;7120;52.890;6.040;2023-05-25T12:15:52;102943.34;;;18.56;49.46
14089;BME280;7120;52.890;6.040;2023-05-25T12:18:19;102934.53;;;19.37;48.37
14089;BME280;7120;52.890;6.040;2023-05-25T12:20:45;102943.72;;;20.10;49.56
14089;BME280;7120;52.890;6.040;2023-05-25T12:23:11;102936.69;;;19.54;47.20
14089;BME280;7120;52.890;6.040;2023-05-25T12:25:36;102940.00;;;19.42;47.89
14089;BME280;7120;52.890;6.040;2023-05-25T12:28:12;102934.94;;;19.58;47.67
14089;BME280;7120;52.890;6.040;2023-05-25T12:30:37;102936.81;;;19.35;50.58
14089;BME280;7120;52.890;6.040;2023-05-25T12:33:03;102936.59;;;17.97;51.86
14089;BME280;7120;52.890;6.040;2023-05-25T12:35:30;102917.44;;;18.33;50.57
14089;BME280;7120;52.890;6.040;2023-05-25T12:38:12;102929.03;;;18.68;48.72
14089;BME280;7120;52.890;6.040;2023-05-25T12:40:38;102925.84;;;18.75;49.36
14089;BME280;7120;52.890;6.040;2023-05-25T12:43:03;102929.88;;;18.82;51.24
14089;BME280;7120;52.890;6.040;2023-05-25T12:45:28;102931.03;;;18.62;50.29
14089;BME280;7120;52.890;6.040;2023-05-25T12:47:54;102922.84;;;19.40;49.36
14089;BME280;7120;52.890;6.040;2023-05-25T12:50:19;102924.81;;;18.71;50.65
14089;BME280;7120;52.890;6.040;2023-05-25T12:52:46;102929.84;;;18.36;50.07
14089;BME280;7120;52.890;6.040;2023-05-25T12:57:46;102935.59;;;18.72;49.80
14089;BME280;7120;52.890;6.040;2023-05-25T13:00:38;102924.41;;;18.91;49.43
14089;BME280;7120;52.890;6.040;2023-05-25T13:03:03;102922.81;;;18.25;49.69
14089;BME280;7120;52.890;6.040;2023-05-25T13:05:31;102931.00;;;18.49;51.01
14089;BME280;7120;52.890;6.040;2023-05-25T13:07:58;102920.31;;;18.75;49.40
14089;BME280;7120;52.890;6.040;2023-05-25T13:10:24;102922.44;;;18.31;49.53
14089;BME280;7120;52.890;6.040;2023-05-25T13:12:51;102937.50;;;18.58;51.09